sensor_id;sensor_type;location;lat;lon;timestamp;temperature;humidity
14705;DHT22;7442;50.840;3.396;2023-06-14T00:01:42;26.10;46.50
14705;DHT22;7442;50.840;3.396;2023-06-14T00:04:30;26.10;46.50
14705;DHT22;7442;50.840;3.396;2023-06-14T00:07:16;26.00;46.50
14705;DHT22;7442;50.840;3.396;2023-06-14T00:10:04;26.10;46.50
14705;DHT22;7442;50.840;3.396;2023-06-14T00:12:50;26.00;46.50
14705;DHT22;7442;50.840;3.396;2023-06-14T00:15:36;26.10;46.60
14705;DHT22;7442;50.840;3.396;2023-06-14T00:18:23;26.00;46.60
14705;DHT22;7442;50.840;3.396;2023-06-14T00:21:13;26.00;46.70
14705;DHT22;7442;50.840;3.396;2023-06-14T00:23:59;26.00;46.70
14705;DHT22;7442;50.840;3.396;2023-06-14T00:26:45;26.00;46.70
14705;DHT22;7442;50.840;3.396;2023-06-14T00:29:31;26.00;46.80
14705;DHT22;7442;50.840;3.396;2023-06-14T00:32:19;26.00;46.80
14705;DHT22;7442;50.840;3.396;2023-06-14T00:35:06;26.00;47.40
14705;DHT22;7442;50.840;3.396;2023-06-14T00:37:53;26.00;46.90
14705;DHT22;7442;50.840;3.396;2023-06-14T00:40:40;26.00;46.90
14705;DHT22;7442;50.840;3.396;2023-06-14T00:43:26;26.00;47.00
14705;DHT22;7442;50.840;3.396;2023-06-14T00:46:12;26.00;47.00
14705;DHT22;7442;50.840;3.396;2023-06-14T00:48:59;26.00;47.10
14705;DHT22;7442;50.840;3.396;2023-06-14T00:51:47;26.00;47.10
14705;DHT22;7442;50.840;3.396;2023-06-14T00:54:33;26.00;47.20
14705;DHT22;7442;50.840;3.396;2023-06-14T00:57:19;26.00;47.20
14705;DHT22;7442;50.840;3.396;2023-06-14T01:00:06;26.00;47.20
14705;DHT22;7442;50.840;3.396;2023-06-14T01:02:54;25.90;47.20
14705;DHT22;7442;50.840;3.396;2023-06-14T01:05:41;25.90;47.20
14705;DHT22;7442;50.840;3.396;2023-06-14T01:08:40;25.90;47.30
14705;DHT22;7442;50.840;3.396;2023-06-14T01:11:28;25.90;47.30
14705;DHT22;7442;50.840;3.396;2023-06-14T01:14:14;25.90;47.40
14705;DHT22;7442;50.840;3.396;2023-06-14T01:17:02;25.90;47.50
14705;DHT22;7442;50.840;3.396;2023-06-14T01:19:48;25.90;47.50
14705;DHT22;7442;50.840;3.396;2023-06-14T01:22:35;25.90;47.50
14705;DHT22;7442;50.840;3.396;2023-06-14T01:25:22;25.90;47.50
14705;DHT22;7442;50.840;3.396;2023-06-14T01:28:11;25.90;47.70
14705;DHT22;7442;50.840;3.396;2023-06-14T01:31:04;25.80;47.60
14705;DHT22;7442;50.840;3.396;2023-06-14T01:33:50;25.80;47.60
14705;DHT22;7442;50.840;3.396;2023-06-14T01:36:37;25.80;47.60
14705;DHT22;7442;50.840;3.396;2023-06-14T01:39:25;25.80;47.60
14705;DHT22;7442;50.840;3.396;2023-06-14T01:42:13;25.80;47.50
14705;DHT22;7442;50.840;3.396;2023-06-14T01:45:00;25.80;47.60
14705;DHT22;7442;50.840;3.396;2023-06-14T01:47:48;25.80;47.60
14705;DHT22;7442;50.840;3.396;2023-06-14T01:50:35;25.80;47.60
14705;DHT22;7442;50.840;3.396;2023-06-14T01:53:21;25.80;47.60
14705;DHT22;7442;50.840;3.396;2023-06-14T01:56:07;25.80;47.60
14705;DHT22;7442;50.840;3.396;2023-06-14T01:58:53;25.80;47.80
14705;DHT22;7442;50.840;3.396;2023-06-14T02:01:40;25.80;47.80
14705;DHT22;7442;50.840;3.396;2023-06-14T02:04:27;25.70;47.80
14705;DHT22;7442;50.840;3.396;2023-06-14T02:07:13;25.80;47.90
14705;DHT22;7442;50.840;3.396;2023-06-14T02:10:00;25.80;47.90
14705;DHT22;7442;50.840;3.396;2023-06-14T02:12:46;25.80;47.90
14705;DHT22;7442;50.840;3.396;2023-06-14T02:15:32;25.80;48.00
14705;DHT22;7442;50.840;3.396;2023-06-14T02:18:22;25.70;47.90
14705;DHT22;7442;50.840;3.396;2023-06-14T02:21:10;25.70;47.90
14705;DHT22;7442;50.840;3.396;2023-06-14T02:23:57;25.70;48.00
14705;DHT22;7442;50.840;3.396;2023-06-14T02:26:43;25.70;48.00
14705;DHT22;7442;50.840;3.396;2023-06-14T02:29:29;25.70;48.00
14705;DHT22;7442;50.840;3.396;2023-06-14T02:32:15;25.70;48.10
14705;DHT22;7442;50.840;3.396;2023-06-14T02:35:02;25.70;48.00
14705;DHT22;7442;50.840;3.396;2023-06-14T02:37:48;25.70;48.00
14705;DHT22;7442;50.840;3.396;2023-06-14T02:40:34;25.70;48.10
14705;DHT22;7442;50.840;3.396;2023-06-14T02:43:21;25.60;48.10
14705;DHT22;7442;50.840;3.396;2023-06-14T02:46:07;25.70;48.10
14705;DHT22;7442;50.840;3.396;2023-06-14T02:48:53;25.60;48.10
14705;DHT22;7442;50.840;3.396;2023-06-14T02:51:39;25.60;48.10
14705;DHT22;7442;50.840;3.396;2023-06-14T02:54:26;25.60;48.20
14705;DHT22;7442;50.840;3.396;2023-06-14T02:57:12;25.60;48.30
14705;DHT22;7442;50.840;3.396;2023-06-14T02:59:58;25.60;48.20
14705;DHT22;7442;50.840;3.396;2023-06-14T03:02:46;25.60;48.20
14705;DHT22;7442;50.840;3.396;2023-06-14T03:05:32;25.60;48.20
14705;DHT22;7442;50.840;3.396;2023-06-14T03:08:18;25.50;48.20
14705;DHT22;7442;50.840;3.396;2023-06-14T03:11:05;25.60;48.30
14705;DHT22;7442;50.840;3.396;2023-06-14T03:13:51;25.60;48.20
14705;DHT22;7442;50.840;3.396;2023-06-14T03:16:37;25.50;48.20
14705;DHT22;7442;50.840;3.396;2023-06-14T03:19:24;25.50;48.30
14705;DHT22;7442;50.840;3.396;2023-06-14T03:22:11;25.50;48.30
14705;DHT22;7442;50.840;3.396;2023-06-14T03:24:58;25.50;48.30
14705;DHT22;7442;50.840;3.396;2023-06-14T03:27:44;25.50;48.30
14705;DHT22;7442;50.840;3.396;2023-06-14T03:30:31;25.50;48.40
14705;DHT22;7442;50.840;3.396;2023-06-14T03:33:17;25.50;48.40
14705;DHT22;7442;50.840;3.396;2023-06-14T03:36:04;25.50;48.50
14705;DHT22;7442;50.840;3.396;2023-06-14T03:38:50;25.50;48.40
14705;DHT22;7442;50.840;3.396;2023-06-14T03:41:36;25.50;48.50
14705;DHT22;7442;50.840;3.396;2023-06-14T03:44:23;25.50;48.40
14705;DHT22;7442;50.840;3.396;2023-06-14T03:47:11;25.50;48.40
14705;DHT22;7442;50.840;3.396;2023-06-14T03:49:57;25.50;48.40
14705;DHT22;7442;50.840;3.396;2023-06-14T03:52:43;25.50;48.40
14705;DHT22;7442;50.840;3.396;2023-06-14T03:55:29;25.40;48.50
14705;DHT22;7442;50.840;3.396;2023-06-14T03:58:19;25.40;48.50
14705;DHT22;7442;50.840;3.396;2023-06-14T04:01:06;25.40;48.50
14705;DHT22;7442;50.840;3.396;2023-06-14T04:03:57;25.50;48.60
14705;DHT22;7442;50.840;3.396;2023-06-14T04:06:43;25.40;48.60
14705;DHT22;7442;50.840;3.396;2023-06-14T04:09:31;25.40;49.20
14705;DHT22;7442;50.840;3.396;2023-06-14T04:12:17;25.40;48.60
14705;DHT22;7442;50.840;3.396;2023-06-14T04:15:04;25.40;48.50
14705;DHT22;7442;50.840;3.396;2023-06-14T04:17:52;25.40;48.60
14705;DHT22;7442;50.840;3.396;2023-06-14T04:20:39;25.40;48.60
14705;DHT22;7442;50.840;3.396;2023-06-14T04:23:26;25.40;48.60
14705;DHT22;7442;50.840;3.396;2023-06-14T04:26:13;25.30;48.50
14705;DHT22;7442;50.840;3.396;2023-06-14T04:29:01;25.40;48.60
14705;DHT22;7442;50.840;3.396;2023-06-14T04:31:47;25.40;48.70
14705;DHT22;7442;50.840;3.396;2023-06-14T04:34:35;25.40;48.70
14705;DHT22;7442;50.840;3.396;2023-06-14T04:37:22;25.30;48.60
14705;DHT22;7442;50.840;3.396;2023-06-14T04:40:10;25.30;48.60
14705;DHT22;7442;50.840;3.396;2023-06-14T04:42:56;25.30;48.60
14705;DHT22;7442;50.840;3.396;2023-06-14T04:45:42;25.30;48.60
14705;DHT22;7442;50.840;3.396;2023-06-14T04:48:30;25.30;48.70
14705;DHT22;7442;50.840;3.396;2023-06-14T04:51:17;25.30;48.70
14705;DHT22;7442;50.840;3.396;2023-06-14T04:54:04;25.30;48.70
14705;DHT22;7442;50.840;3.396;2023-06-14T04:56:52;25.30;48.80
14705;DHT22;7442;50.840;3.396;2023-06-14T04:59:41;25.30;48.70
14705;DHT22;7442;50.840;3.396;2023-06-14T05:02:30;25.30;48.70
14705;DHT22;7442;50.840;3.396;2023-06-14T05:05:17;25.30;48.70
14705;DHT22;7442;50.840;3.396;2023-06-14T05:08:03;25.30;48.70
14705;DHT22;7442;50.840;3.396;2023-06-14T05:10:50;25.20;48.70
14705;DHT22;7442;50.840;3.396;2023-06-14T05:13:36;25.30;48.80
14705;DHT22;7442;50.840;3.396;2023-06-14T05:16:22;25.30;48.80
14705;DHT22;7442;50.840;3.396;2023-06-14T05:19:10;25.30;48.80
14705;DHT22;7442;50.840;3.396;2023-06-14T05:21:56;25.30;48.80
14705;DHT22;7442;50.840;3.396;2023-06-14T05:24:43;25.30;48.70
14705;DHT22;7442;50.840;3.396;2023-06-14T05:27:30;25.30;48.70
14705;DHT22;7442;50.840;3.396;2023-06-14T05:30:16;24.90;49.50
14705;DHT22;7442;50.840;3.396;2023-06-14T05:33:03;24.50;50.20
14705;DHT22;7442;50.840;3.396;2023-06-14T05:35:49;24.30;51.00
14705;DHT22;7442;50.840;3.396;2023-06-14T05:38:36;24.10;51.80
14705;DHT22;7442;50.840;3.396;2023-06-14T05:41:25;24.10;52.10
14705;DHT22;7442;50.840;3.396;2023-06-14T05:44:11;24.20;51.30
14705;DHT22;7442;50.840;3.396;2023-06-14T05:46:58;24.50;50.40
14705;DHT22;7442;50.840;3.396;2023-06-14T05:49:45;24.60;49.90
14705;DHT22;7442;50.840;3.396;2023-06-14T05:52:31;24.70;49.70
14705;DHT22;7442;50.840;3.396;2023-06-14T05:55:18;24.80;49.80
14705;DHT22;7442;50.840;3.396;2023-06-14T05:58:05;24.90;49.60
14705;DHT22;7442;50.840;3.396;2023-06-14T06:00:51;24.90;49.50
14705;DHT22;7442;50.840;3.396;2023-06-14T06:03:38;25.00;49.20
14705;DHT22;7442;50.840;3.396;2023-06-14T06:06:25;25.10;49.00
14705;DHT22;7442;50.840;3.396;2023-06-14T06:09:11;25.10;48.60
14705;DHT22;7442;50.840;3.396;2023-06-14T06:11:59;25.20;48.50
14705;DHT22;7442;50.840;3.396;2023-06-14T06:14:45;25.20;48.10
14705;DHT22;7442;50.840;3.396;2023-06-14T06:17:31;25.30;48.00
14705;DHT22;7442;50.840;3.396;2023-06-14T06:20:17;25.20;47.80
14705;DHT22;7442;50.840;3.396;2023-06-14T06:23:04;25.20;47.50
14705;DHT22;7442;50.840;3.396;2023-06-14T06:25:50;25.20;47.40
14705;DHT22;7442;50.840;3.396;2023-06-14T06:28:37;25.30;47.20
14705;DHT22;7442;50.840;3.396;2023-06-14T06:31:23;25.30;47.20
14705;DHT22;7442;50.840;3.396;2023-06-14T06:34:09;25.30;47.20
14705;DHT22;7442;50.840;3.396;2023-06-14T06:36:55;25.30;47.20
14705;DHT22;7442;50.840;3.396;2023-06-14T06:39:42;25.30;47.00
14705;DHT22;7442;50.840;3.396;2023-06-14T06:42:29;25.30;46.90
14705;DHT22;7442;50.840;3.396;2023-06-14T06:45:16;25.30;46.80
14705;DHT22;7442;50.840;3.396;2023-06-14T06:48:02;25.30;46.90
14705;DHT22;7442;50.840;3.396;2023-06-14T06:50:49;25.40;46.90
14705;DHT22;7442;50.840;3.396;2023-06-14T06:53:36;25.40;46.90
14705;DHT22;7442;50.840;3.396;2023-06-14T06:56:22;25.50;46.90
14705;DHT22;7442;50.840;3.396;2023-06-14T06:59:09;25.40;47.00
14705;DHT22;7442;50.840;3.396;2023-06-14T07:01:55;25.50;46.80
14705;DHT22;7442;50.840;3.396;2023-06-14T07:04:42;25.50;46.80
14705;DHT22;7442;50.840;3.396;2023-06-14T07:07:28;25.50;46.80
14705;DHT22;7442;50.840;3.396;2023-06-14T07:10:14;25.50;46.70
14705;DHT22;7442;50.840;3.396;2023-06-14T07:13:02;25.50;46.60
14705;DHT22;7442;50.840;3.396;2023-06-14T07:15:48;25.50;46.40
14705;DHT22;7442;50.840;3.396;2023-06-14T07:18:34;25.50;46.30
14705;DHT22;7442;50.840;3.396;2023-06-14T07:21:22;25.50;46.40
14705;DHT22;7442;50.840;3.396;2023-06-14T07:24:10;25.60;46.30
14705;DHT22;7442;50.840;3.396;2023-06-14T07:26:56;25.60;46.10
14705;DHT22;7442;50.840;3.396;2023-06-14T07:29:43;25.60;46.00
14705;DHT22;7442;50.840;3.396;2023-06-14T07:32:29;25.60;45.90
14705;DHT22;7442;50.840;3.396;2023-06-14T07:35:16;25.70;45.90
14705;DHT22;7442;50.840;3.396;2023-06-14T07:38:02;25.80;45.70
14705;DHT22;7442;50.840;3.396;2023-06-14T07:40:49;25.80;45.70
14705;DHT22;7442;50.840;3.396;2023-06-14T07:43:35;25.90;45.50
14705;DHT22;7442;50.840;3.396;2023-06-14T07:46:21;26.00;45.30
14705;DHT22;7442;50.840;3.396;2023-06-14T07:49:08;26.10;45.10
14705;DHT22;7442;50.840;3.396;2023-06-14T07:51:56;26.20;45.00
14705;DHT22;7442;50.840;3.396;2023-06-14T07:54:44;26.20;44.70
14705;DHT22;7442;50.840;3.396;2023-06-14T07:57:30;26.20;44.80
14705;DHT22;7442;50.840;3.396;2023-06-14T08:00:16;26.30;44.70
14705;DHT22;7442;50.840;3.396;2023-06-14T08:03:03;26.30;44.30
14705;DHT22;7442;50.840;3.396;2023-06-14T08:05:50;26.40;44.20
14705;DHT22;7442;50.840;3.396;2023-06-14T08:08:36;26.40;44.10
14705;DHT22;7442;50.840;3.396;2023-06-14T08:11:22;26.40;44.20
14705;DHT22;7442;50.840;3.396;2023-06-14T08:14:09;26.50;44.00
14705;DHT22;7442;50.840;3.396;2023-06-14T08:16:56;26.50;43.80
14705;DHT22;7442;50.840;3.396;2023-06-14T08:19:42;26.60;43.60
14705;DHT22;7442;50.840;3.396;2023-06-14T08:22:29;26.60;43.60
14705;DHT22;7442;50.840;3.396;2023-06-14T08:25:16;26.70;43.70
14705;DHT22;7442;50.840;3.396;2023-06-14T08:28:03;26.70;43.40
14705;DHT22;7442;50.840;3.396;2023-06-14T08:30:49;26.70;43.20
14705;DHT22;7442;50.840;3.396;2023-06-14T08:33:36;26.80;42.90
14705;DHT22;7442;50.840;3.396;2023-06-14T08:36:22;26.80;42.80
14705;DHT22;7442;50.840;3.396;2023-06-14T08:39:08;26.90;43.00
14705;DHT22;7442;50.840;3.396;2023-06-14T08:41:55;26.90;43.10
14705;DHT22;7442;50.840;3.396;2023-06-14T08:44:42;26.90;43.10
14705;DHT22;7442;50.840;3.396;2023-06-14T08:47:29;26.90;43.20
14705;DHT22;7442;50.840;3.396;2023-06-14T08:50:19;26.90;43.10
14705;DHT22;7442;50.840;3.396;2023-06-14T08:53:06;27.00;42.90
14705;DHT22;7442;50.840;3.396;2023-06-14T08:55:55;27.00;42.70
14705;DHT22;7442;50.840;3.396;2023-06-14T08:58:43;27.10;42.80
14705;DHT22;7442;50.840;3.396;2023-06-14T09:01:37;27.10;42.60
14705;DHT22;7442;50.840;3.396;2023-06-14T09:04:24;27.10;42.20
14705;DHT22;7442;50.840;3.396;2023-06-14T09:07:11;27.20;42.40
14705;DHT22;7442;50.840;3.396;2023-06-14T09:10:09;27.20;42.20
14705;DHT22;7442;50.840;3.396;2023-06-14T09:12:55;27.20;42.10
14705;DHT22;7442;50.840;3.396;2023-06-14T09:15:42;27.20;41.80
14705;DHT22;7442;50.840;3.396;2023-06-14T09:18:38;27.20;41.70
14705;DHT22;7442;50.840;3.396;2023-06-14T09:21:25;27.20;41.80
14705;DHT22;7442;50.840;3.396;2023-06-14T09:24:13;27.30;41.70
14705;DHT22;7442;50.840;3.396;2023-06-14T09:27:00;27.20;41.50
14705;DHT22;7442;50.840;3.396;2023-06-14T09:29:46;27.30;41.50
14705;DHT22;7442;50.840;3.396;2023-06-14T09:32:36;27.30;41.40
14705;DHT22;7442;50.840;3.396;2023-06-14T09:35:21;27.30;41.30
14705;DHT22;7442;50.840;3.396;2023-06-14T09:38:08;27.30;41.00
14705;DHT22;7442;50.840;3.396;2023-06-14T09:40:58;27.30;40.90
14705;DHT22;7442;50.840;3.396;2023-06-14T09:43:46;27.30;40.80
14705;DHT22;7442;50.840;3.396;2023-06-14T09:46:34;27.30;40.70
14705;DHT22;7442;50.840;3.396;2023-06-14T09:49:20;27.30;40.60
14705;DHT22;7442;50.840;3.396;2023-06-14T09:52:13;27.30;40.60
14705;DHT22;7442;50.840;3.396;2023-06-14T09:54:56;27.30;40.60
14705;DHT22;7442;50.840;3.396;2023-06-14T09:57:45;27.30;40.70
14705;DHT22;7442;50.840;3.396;2023-06-14T10:00:32;27.30;40.40
14705;DHT22;7442;50.840;3.396;2023-06-14T10:03:21;27.40;40.10
14705;DHT22;7442;50.840;3.396;2023-06-14T10:06:09;27.40;39.80
14705;DHT22;7442;50.840;3.396;2023-06-14T10:08:57;27.40;39.40
14705;DHT22;7442;50.840;3.396;2023-06-14T10:11:45;27.40;39.20
14705;DHT22;7442;50.840;3.396;2023-06-14T10:14:32;27.50;39.00
14705;DHT22;7442;50.840;3.396;2023-06-14T10:17:33;27.50;38.80
14705;DHT22;7442;50.840;3.396;2023-06-14T10:20:26;27.50;38.90
14705;DHT22;7442;50.840;3.396;2023-06-14T10:23:13;27.50;38.90
14705;DHT22;7442;50.840;3.396;2023-06-14T10:25:58;27.50;39.00
14705;DHT22;7442;50.840;3.396;2023-06-14T10:29:01;27.50;39.20
14705;DHT22;7442;50.840;3.396;2023-06-14T10:31:48;27.50;39.30
14705;DHT22;7442;50.840;3.396;2023-06-14T10:34:38;27.60;39.10
14705;DHT22;7442;50.840;3.396;2023-06-14T10:37:24;27.60;39.10
14705;DHT22;7442;50.840;3.396;2023-06-14T10:40:28;27.60;38.90
14705;DHT22;7442;50.840;3.396;2023-06-14T10:43:00;27.60;39.00
14705;DHT22;7442;50.840;3.396;2023-06-14T10:46:19;27.70;39.10
14705;DHT22;7442;50.840;3.396;2023-06-14T10:49:07;27.70;39.00
14705;DHT22;7442;50.840;3.396;2023-06-14T10:51:56;27.70;39.10
14705;DHT22;7442;50.840;3.396;2023-06-14T10:54:58;27.80;39.20
14705;DHT22;7442;50.840;3.396;2023-06-14T10:57:48;27.70;39.20
14705;DHT22;7442;50.840;3.396;2023-06-14T11:00:37;27.70;39.40
14705;DHT22;7442;50.840;3.396;2023-06-14T11:03:50;27.80;39.60
14705;DHT22;7442;50.840;3.396;2023-06-14T11:06:40;27.90;39.40
14705;DHT22;7442;50.840;3.396;2023-06-14T11:09:50;27.90;39.40
14705;DHT22;7442;50.840;3.396;2023-06-14T11:12:34;27.90;38.70
14705;DHT22;7442;50.840;3.396;2023-06-14T11:15:22;27.90;38.10
14705;DHT22;7442;50.840;3.396;2023-06-14T11:18:08;27.90;37.90
14705;DHT22;7442;50.840;3.396;2023-06-14T11:20:55;27.90;38.00
14705;DHT22;7442;50.840;3.396;2023-06-14T11:23:41;27.90;37.60
14705;DHT22;7442;50.840;3.396;2023-06-14T11:26:29;27.90;38.00
14705;DHT22;7442;50.840;3.396;2023-06-14T11:29:16;27.90;38.10
14705;DHT22;7442;50.840;3.396;2023-06-14T11:32:05;27.90;37.80
14705;DHT22;7442;50.840;3.396;2023-06-14T11:34:50;27.90;38.30
14705;DHT22;7442;50.840;3.396;2023-06-14T11:37:37;27.90;38.50
14705;DHT22;7442;50.840;3.396;2023-06-14T11:40:27;27.90;38.90
14705;DHT22;7442;50.840;3.396;2023-06-14T11:43:14;27.90;38.20
14705;DHT22;7442;50.840;3.396;2023-06-14T11:46:00;27.90;38.60
14705;DHT22;7442;50.840;3.396;2023-06-14T11:48:47;28.00;38.90
14705;DHT22;7442;50.840;3.396;2023-06-14T11:51:34;28.00;38.70
14705;DHT22;7442;50.840;3.396;2023-06-14T11:54:20;28.00;38.70
14705;DHT22;7442;50.840;3.396;2023-06-14T11:57:08;28.00;38.60
14705;DHT22;7442;50.840;3.396;2023-06-14T11:59:59;28.00;38.60
14705;DHT22;7442;50.840;3.396;2023-06-14T12:02:53;28.00;38.00
14705;DHT22;7442;50.840;3.396;2023-06-14T12:05:41;28.00;38.10
14705;DHT22;7442;50.840;3.396;2023-06-14T12:08:32;28.00;37.90
14705;DHT22;7442;50.840;3.396;2023-06-14T12:11:20;28.00;38.10
14705;DHT22;7442;50.840;3.396;2023-06-14T12:14:08;28.00;38.80
14705;DHT22;7442;50.840;3.396;2023-06-14T12:17:03;28.00;38.70
14705;DHT22;7442;50.840;3.396;2023-06-14T12:19:45;28.00;38.80
14705;DHT22;7442;50.840;3.396;2023-06-14T12:22:31;28.00;38.80
14705;DHT22;7442;50.840;3.396;2023-06-14T12:25:35;28.00;39.00
14705;DHT22;7442;50.840;3.396;2023-06-14T12:28:23;28.00;39.00
14705;DHT22;7442;50.840;3.396;2023-06-14T12:31:15;28.00;39.00
14705;DHT22;7442;50.840;3.396;2023-06-14T12:34:04;28.00;38.60
14705;DHT22;7442;50.840;3.396;2023-06-14T12:36:50;27.90;38.40
14705;DHT22;7442;50.840;3.396;2023-06-14T12:39:38;27.90;39.60
14705;DHT22;7442;50.840;3.396;2023-06-14T12:42:24;28.00;39.10
14705;DHT22;7442;50.840;3.396;2023-06-14T12:45:11;28.00;39.30
14705;DHT22;7442;50.840;3.396;2023-06-14T12:47:57;28.00;39.80
14705;DHT22;7442;50.840;3.396;2023-06-14T12:50:43;28.00;39.60
14705;DHT22;7442;50.840;3.396;2023-06-14T12:53:30;28.00;39.40
14705;DHT22;7442;50.840;3.396;2023-06-14T12:56:16;28.00;39.00
14705;DHT22;7442;50.840;3.396;2023-06-14T12:59:03;28.00;38.00
14705;DHT22;7442;50.840;3.396;2023-06-14T13:01:49;27.90;36.90
14705;DHT22;7442;50.840;3.396;2023-06-14T13:04:35;27.90;37.20
14705;DHT22;7442;50.840;3.396;2023-06-14T13:07:22;27.90;37.80
14705;DHT22;7442;50.840;3.396;2023-06-14T13:10:09;28.00;38.00
14705;DHT22;7442;50.840;3.396;2023-06-14T13:12:55;28.00;37.80
14705;DHT22;7442;50.840;3.396;2023-06-14T13:15:43;28.00;37.90
14705;DHT22;7442;50.840;3.396;2023-06-14T13:18:31;28.00;37.70
14705;DHT22;7442;50.840;3.396;2023-06-14T13:21:17;28.00;37.70
14705;DHT22;7442;50.840;3.396;2023-06-14T13:24:05;28.00;38.20
14705;DHT22;7442;50.840;3.396;2023-06-14T13:26:52;28.10;38.20
14705;DHT22;7442;50.840;3.396;2023-06-14T13:29:38;28.10;37.90
14705;DHT22;7442;50.840;3.396;2023-06-14T13:32:24;28.10;37.50
14705;DHT22;7442;50.840;3.396;2023-06-14T13:35:10;28.10;37.70
14705;DHT22;7442;50.840;3.396;2023-06-14T13:37:56;28.10;36.50
14705;DHT22;7442;50.840;3.396;2023-06-14T13:40:42;28.10;36.40
14705;DHT22;7442;50.840;3.396;2023-06-14T13:43:28;28.10;36.50
14705;DHT22;7442;50.840;3.396;2023-06-14T13:46:15;28.10;36.40
14705;DHT22;7442;50.840;3.396;2023-06-14T13:49:03;28.20;36.70
14705;DHT22;7442;50.840;3.396;2023-06-14T13:51:50;28.20;36.80
14705;DHT22;7442;50.840;3.396;2023-06-14T13:54:37;28.20;36.70
14705;DHT22;7442;50.840;3.396;2023-06-14T13:57:23;28.20;37.30
14705;DHT22;7442;50.840;3.396;2023-06-14T14:00:11;28.20;36.70
14705;DHT22;7442;50.840;3.396;2023-06-14T14:02:58;28.10;36.60
14705;DHT22;7442;50.840;3.396;2023-06-14T14:05:45;28.10;37.00
14705;DHT22;7442;50.840;3.396;2023-06-14T14:08:31;28.10;37.00
14705;DHT22;7442;50.840;3.396;2023-06-14T14:11:18;28.10;37.50
14705;DHT22;7442;50.840;3.396;2023-06-14T14:14:05;28.10;37.90
14705;DHT22;7442;50.840;3.396;2023-06-14T14:16:53;28.10;37.50
14705;DHT22;7442;50.840;3.396;2023-06-14T14:19:40;28.20;37.50
14705;DHT22;7442;50.840;3.396;2023-06-14T14:22:26;28.20;37.60
14705;DHT22;7442;50.840;3.396;2023-06-14T14:25:13;28.20;37.70
14705;DHT22;7442;50.840;3.396;2023-06-14T14:27:59;28.20;37.90
14705;DHT22;7442;50.840;3.396;2023-06-14T14:30:45;28.20;37.30
14705;DHT22;7442;50.840;3.396;2023-06-14T14:33:32;28.20;37.80
14705;DHT22;7442;50.840;3.396;2023-06-14T14:36:20;28.20;38.40
14705;DHT22;7442;50.840;3.396;2023-06-14T14:39:06;28.20;38.40
14705;DHT22;7442;50.840;3.396;2023-06-14T14:41:52;28.30;38.10
14705;DHT22;7442;50.840;3.396;2023-06-14T14:44:38;28.20;37.80
14705;DHT22;7442;50.840;3.396;2023-06-14T14:47:25;28.20;38.10
14705;DHT22;7442;50.840;3.396;2023-06-14T14:50:11;28.30;38.90
14705;DHT22;7442;50.840;3.396;2023-06-14T14:52:58;28.30;38.40
14705;DHT22;7442;50.840;3.396;2023-06-14T14:55:44;28.30;39.10
14705;DHT22;7442;50.840;3.396;2023-06-14T14:58:31;28.30;38.80
14705;DHT22;7442;50.840;3.396;2023-06-14T15:01:17;28.30;38.80
14705;DHT22;7442;50.840;3.396;2023-06-14T15:04:03;28.30;38.30
14705;DHT22;7442;50.840;3.396;2023-06-14T15:06:56;28.20;38.50
14705;DHT22;7442;50.840;3.396;2023-06-14T15:09:43;28.30;38.50
14705;DHT22;7442;50.840;3.396;2023-06-14T15:12:29;28.30;38.40
14705;DHT22;7442;50.840;3.396;2023-06-14T15:15:15;28.30;38.20
14705;DHT22;7442;50.840;3.396;2023-06-14T15:18:01;28.30;38.20
14705;DHT22;7442;50.840;3.396;2023-06-14T15:20:48;28.30;38.00
14705;DHT22;7442;50.840;3.396;2023-06-14T15:23:48;28.30;37.80
14705;DHT22;7442;50.840;3.396;2023-06-14T15:26:36;28.30;38.00
14705;DHT22;7442;50.840;3.396;2023-06-14T15:29:22;28.30;37.90
14705;DHT22;7442;50.840;3.396;2023-06-14T15:32:09;28.30;37.90
14705;DHT22;7442;50.840;3.396;2023-06-14T15:34:55;28.30;38.10
14705;DHT22;7442;50.840;3.396;2023-06-14T15:37:41;28.30;38.40
14705;DHT22;7442;50.840;3.396;2023-06-14T15:40:28;28.20;38.60
14705;DHT22;7442;50.840;3.396;2023-06-14T15:43:15;28.30;38.60
14705;DHT22;7442;50.840;3.396;2023-06-14T15:46:01;28.20;38.20
14705;DHT22;7442;50.840;3.396;2023-06-14T15:48:48;28.20;38.40
14705;DHT22;7442;50.840;3.396;2023-06-14T15:51:34;28.20;38.50
14705;DHT22;7442;50.840;3.396;2023-06-14T15:54:20;28.30;37.90
14705;DHT22;7442;50.840;3.396;2023-06-14T15:57:06;28.30;38.00
14705;DHT22;7442;50.840;3.396;2023-06-14T15:59:55;28.30;38.30
14705;DHT22;7442;50.840;3.396;2023-06-14T16:02:41;28.30;37.30
14705;DHT22;7442;50.840;3.396;2023-06-14T16:05:28;28.30;37.20
14705;DHT22;7442;50.840;3.396;2023-06-14T16:08:14;28.20;36.90
14705;DHT22;7442;50.840;3.396;2023-06-14T16:11:00;28.20;36.80
14705;DHT22;7442;50.840;3.396;2023-06-14T16:13:46;28.20;37.10
14705;DHT22;7442;50.840;3.396;2023-06-14T16:16:32;28.20;37.60
14705;DHT22;7442;50.840;3.396;2023-06-14T16:19:18;28.20;37.80
14705;DHT22;7442;50.840;3.396;2023-06-14T16:22:05;28.20;38.10
14705;DHT22;7442;50.840;3.396;2023-06-14T16:24:52;28.30;38.30
14705;DHT22;7442;50.840;3.396;2023-06-14T16:27:39;28.20;38.50
14705;DHT22;7442;50.840;3.396;2023-06-14T16:30:25;28.20;38.70
14705;DHT22;7442;50.840;3.396;2023-06-14T16:33:12;28.20;38.90
14705;DHT22;7442;50.840;3.396;2023-06-14T16:35:58;28.20;39.00
14705;DHT22;7442;50.840;3.396;2023-06-14T16:38:44;28.20;39.20
14705;DHT22;7442;50.840;3.396;2023-06-14T16:41:30;28.20;39.30
14705;DHT22;7442;50.840;3.396;2023-06-14T16:44:17;28.20;39.40
14705;DHT22;7442;50.840;3.396;2023-06-14T16:47:03;28.20;39.60
14705;DHT22;7442;50.840;3.396;2023-06-14T16:49:51;28.20;39.60
14705;DHT22;7442;50.840;3.396;2023-06-14T16:52:37;28.20;39.70
14705;DHT22;7442;50.840;3.396;2023-06-14T16:55:23;28.20;39.80
14705;DHT22;7442;50.840;3.396;2023-06-14T16:58:10;28.20;39.90
14705;DHT22;7442;50.840;3.396;2023-06-14T17:00:56;28.20;40.00
14705;DHT22;7442;50.840;3.396;2023-06-14T17:03:42;28.20;40.10
14705;DHT22;7442;50.840;3.396;2023-06-14T17:06:28;28.20;40.10
14705;DHT22;7442;50.840;3.396;2023-06-14T17:09:15;28.20;40.20
14705;DHT22;7442;50.840;3.396;2023-06-14T17:12:01;28.20;40.20
14705;DHT22;7442;50.840;3.396;2023-06-14T17:14:48;28.20;40.30
14705;DHT22;7442;50.840;3.396;2023-06-14T17:17:34;28.20;40.40
14705;DHT22;7442;50.840;3.396;2023-06-14T17:20:20;28.20;40.50
14705;DHT22;7442;50.840;3.396;2023-06-14T17:23:08;28.20;40.50
14705;DHT22;7442;50.840;3.396;2023-06-14T17:25:55;28.10;40.50
14705;DHT22;7442;50.840;3.396;2023-06-14T17:28:40;28.10;40.50
14705;DHT22;7442;50.840;3.396;2023-06-14T17:31:27;28.10;40.50
14705;DHT22;7442;50.840;3.396;2023-06-14T17:34:13;28.10;40.60
14705;DHT22;7442;50.840;3.396;2023-06-14T17:37:00;28.20;40.70
14705;DHT22;7442;50.840;3.396;2023-06-14T17:39:46;28.10;40.70
14705;DHT22;7442;50.840;3.396;2023-06-14T17:42:33;28.10;40.80
14705;DHT22;7442;50.840;3.396;2023-06-14T17:45:22;28.10;40.90
14705;DHT22;7442;50.840;3.396;2023-06-14T17:48:08;28.10;41.00
14705;DHT22;7442;50.840;3.396;2023-06-14T17:50:55;28.10;41.00
14705;DHT22;7442;50.840;3.396;2023-06-14T17:53:41;28.10;41.10